sensor_id;sensor_type;location;lat;lon;timestamp;pressure;altitude;pressure_sealevel;temperature;humidity
50380;BME280;37474;59.468;18.040;2023-08-01T00:00:08;99870.25;;;12.48;100.00
50380;BME280;37474;59.468;18.040;2023-08-01T00:02:39;99873.28;;;12.41;100.00
50380;BME280;37474;59.468;18.040;2023-08-01T00:05:09;99863.78;;;12.29;100.00
50380;BME280;37474;59.468;18.040;2023-08-01T00:07:38;99869.09;;;12.28;100.00
50380;BME280;37474;59.468;18.040;2023-08-01T00:10:07;99864.75;;;12.28;100.00
50380;BME280;37474;59.468;18.040;2023-08-01T00:12:35;99863.28;;;12.48;100.00
50380;BME280;37474;59.468;18.040;2023-08-01T00:15:05;99863.25;;;12.72;100.00
50380;BME280;37474;59.468;18.040;2023-08-01T00:17:34;99859.44;;;12.65;100.00
50380;BME280;37474;59.468;18.040;2023-08-01T00:20:05;99852.78;;;12.50;100.00
50380;BME280;37474;59.468;18.040;2023-08-01T00:22:33;99853.22;;;12.43;100.00
50380;BME280;37474;59.468;18.040;2023-08-01T00:25:02;99857.69;;;12.41;100.00
50380;BME280;37474;59.468;18.040;2023-08-01T00:27:31;99856.19;;;12.26;100.00
50380;BME280;37474;59.468;18.040;2023-08-01T00:30:07;99855.50;;;12.24;100.00
50380;BME280;37474;59.468;18.040;2023-08-01T00:32:36;99849.59;;;12.22;100.00
50380;BME280;37474;59.468;18.040;2023-08-01T00:35:07;99849.19;;;12.39;100.00
50380;BME280;37474;59.468;18.040;2023-08-01T00:37:37;99848.06;;;12.31;100.00
50380;BME280;37474;59.468;18.040;2023-08-01T00:40:07;99836.97;;;12.29;100.00
50380;BME280;37474;59.468;18.040;2023-08-01T00:42:36;99844.66;;;12.30;100.00
50380;BME280;37474;59.468;18.040;2023-08-01T00:45:06;99836.66;;;12.33;100.00
50380;BME280;37474;59.468;18.040;2023-08-01T00:47:35;99846.84;;;12.72;100.00
50380;BME280;37474;59.468;18.040;2023-08-01T00:50:06;99840.91;;;12.81;100.00
50380;BME280;37474;59.468;18.040;2023-08-01T00:52:35;99847.25;;;12.65;100.00
50380;BME280;37474;59.468;18.040;2023-08-01T00:55:05;99849.16;;;12.63;100.00
50380;BME280;37474;59.468;18.040;2023-08-01T00:57:34;99846.06;;;12.58;100.00
50380;BME280;37474;59.468;18.040;2023-08-01T01:00:04;99838.50;;;12.55;100.00
50380;BME280;37474;59.468;18.040;2023-08-01T01:02:33;99836.00;;;12.54;100.00
50380;BME280;37474;59.468;18.040;2023-08-01T01:05:03;99835.66;;;12.58;100.00
50380;BME280;37474;59.468;18.040;2023-08-01T01:07:34;99829.19;;;12.64;100.00
50380;BME280;37474;59.468;18.040;2023-08-01T01:10:03;99819.34;;;12.56;100.00
50380;BME280;37474;59.468;18.040;2023-08-01T01:12:32;99820.78;;;12.60;100.00
50380;BME280;37474;59.468;18.040;2023-08-01T01:15:00;99819.22;;;12.58;100.00
50380;BME280;37474;59.468;18.040;2023-08-01T01:17:29;99816.66;;;12.69;100.00
50380;BME280;37474;59.468;18.040;2023-08-01T01:19:58;99808.41;;;12.86;100.00
50380;BME280;37474;59.468;18.040;2023-08-01T01:22:29;99809.13;;;12.77;100.00
50380;BME280;37474;59.468;18.040;2023-08-01T01:24:59;99804.84;;;12.76;100.00
50380;BME280;37474;59.468;18.040;2023-08-01T01:27:28;99802.84;;;12.68;100.00
50380;BME280;37474;59.468;18.040;2023-08-01T01:29:58;99790.19;;;12.75;100.00
50380;BME280;37474;59.468;18.040;2023-08-01T01:32:28;99794.22;;;12.79;100.00
50380;BME280;37474;59.468;18.040;2023-08-01T01:34:57;99785.34;;;12.82;100.00
50380;BME280;37474;59.468;18.040;2023-08-01T01:37:27;99780.28;;;12.80;100.00
50380;BME280;37474;59.468;18.040;2023-08-01T01:39:56;99784.88;;;12.77;100.00
50380;BME280;37474;59.468;18.040;2023-08-01T01:42:25;99782.22;;;12.54;100.00
50380;BME280;37474;59.468;18.040;2023-08-01T01:44:53;99776.66;;;12.48;100.00
50380;BME280;37474;59.468;18.040;2023-08-01T01:47:22;99765.53;;;12.34;100.00
50380;BME280;37474;59.468;18.040;2023-08-01T01:49:50;99767.38;;;12.67;100.00
50380;BME280;37474;59.468;18.040;2023-08-01T01:52:19;99771.66;;;12.80;100.00
50380;BME280;37474;59.468;18.040;2023-08-01T01:54:49;99759.34;;;12.82;100.00
50380;BME280;37474;59.468;18.040;2023-08-01T01:57:17;99764.44;;;12.83;100.00
50380;BME280;37474;59.468;18.040;2023-08-01T01:59:46;99754.03;;;12.83;100.00
50380;BME280;37474;59.468;18.040;2023-08-01T02:02:14;99754.59;;;12.64;100.00
50380;BME280;37474;59.468;18.040;2023-08-01T02:04:45;99749.84;;;12.47;100.00
50380;BME280;37474;59.468;18.040;2023-08-01T02:07:14;99748.81;;;12.61;100.00
50380;BME280;37474;59.468;18.040;2023-08-01T02:09:43;99751.75;;;12.56;100.00
50380;BME280;37474;59.468;18.040;2023-08-01T02:12:13;99758.81;;;12.43;100.00
50380;BME280;37474;59.468;18.040;2023-08-01T02:14:41;99752.28;;;12.37;100.00
50380;BME280;37474;59.468;18.040;2023-08-01T02:17:10;99749.56;;;12.28;100.00
50380;BME280;37474;59.468;18.040;2023-08-01T02:19:39;99751.31;;;12.16;100.00
50380;BME280;37474;59.468;18.040;2023-08-01T02:22:07;99749.13;;;12.10;100.00
50380;BME280;37474;59.468;18.040;2023-08-01T02:24:35;99735.97;;;12.24;100.00
50380;BME280;37474;59.468;18.040;2023-08-01T02:27:05;99736.75;;;12.13;100.00
50380;BME280;37474;59.468;18.040;2023-08-01T02:29:35;99736.81;;;12.01;100.00
50380;BME280;37474;59.468;18.040;2023-08-01T02:32:04;99740.13;;;12.03;100.00
50380;BME280;37474;59.468;18.040;2023-08-01T02:34:33;99729.75;;;12.03;100.00
50380;BME280;37474;59.468;18.040;2023-08-01T02:37:01;99714.69;;;12.19;100.00
50380;BME280;37474;59.468;18.040;2023-08-01T02:39:30;99708.28;;;12.12;100.00
50380;BME280;37474;59.468;18.040;2023-08-01T02:41:58;99722.28;;;12.33;100.00
50380;BME280;37474;59.468;18.040;2023-08-01T02:44:27;99722.88;;;12.37;100.00
50380;BME280;37474;59.468;18.040;2023-08-01T02:46:57;99716.50;;;12.41;100.00
50380;BME280;37474;59.468;18.040;2023-08-01T02:49:26;99715.78;;;12.28;100.00
50380;BME280;37474;59.468;18.040;2023-08-01T02:51:54;99715.84;;;12.15;100.00
50380;BME280;37474;59.468;18.040;2023-08-01T02:54:23;99710.63;;;12.15;100.00
50380;BME280;37474;59.468;18.040;2023-08-01T02:56:51;99714.69;;;12.19;100.00
50380;BME280;37474;59.468;18.040;2023-08-01T02:59:20;99706.91;;;12.30;100.00
50380;BME280;37474;59.468;18.040;2023-08-01T03:01:48;99712.47;;;12.37;100.00
50380;BME280;37474;59.468;18.040;2023-08-01T03:04:18;99714.50;;;12.33;100.00
50380;BME280;37474;59.468;18.040;2023-08-01T03:06:58;99716.50;;;12.41;100.00
50380;BME280;37474;59.468;18.040;2023-08-01T03:09:26;99714.72;;;12.41;100.00
50380;BME280;37474;59.468;18.040;2023-08-01T03:11:55;99712.63;;;12.47;100.00
50380;BME280;37474;59.468;18.040;2023-08-01T03:14:23;99711.94;;;12.56;100.00
50380;BME280;37474;59.468;18.040;2023-08-01T03:16:52;99703.41;;;12.76;100.00
50380;BME280;37474;59.468;18.040;2023-08-01T03:19:22;99709.44;;;12.88;100.00
50380;BME280;37474;59.468;18.040;2023-08-01T03:21:51;99711.69;;;13.04;100.00
50380;BME280;37474;59.468;18.040;2023-08-01T03:24:19;99706.75;;;13.01;100.00
50380;BME280;37474;59.468;18.040;2023-08-01T03:26:48;99709.00;;;13.05;100.00
50380;BME280;37474;59.468;18.040;2023-08-01T03:29:17;99713.13;;;13.08;100.00
50380;BME280;37474;59.468;18.040;2023-08-01T03:31:45;99702.56;;;13.09;100.00
50380;BME280;37474;59.468;18.040;2023-08-01T03:34:14;99698.00;;;13.02;100.00
50380;BME280;37474;59.468;18.040;2023-08-01T03:36:44;99697.38;;;13.09;100.00
50380;BME280;37474;59.468;18.040;2023-08-01T03:39:12;99697.63;;;13.17;100.00
50380;BME280;37474;59.468;18.040;2023-08-01T03:41:41;99692.16;;;13.20;100.00
50380;BME280;37474;59.468;18.040;2023-08-01T03:44:09;99701.75;;;13.31;100.00
50380;BME280;37474;59.468;18.040;2023-08-01T03:46:38;99690.94;;;13.47;100.00
50380;BME280;37474;59.468;18.040;2023-08-01T03:49:07;99678.53;;;13.51;100.00
50380;BME280;37474;59.468;18.040;2023-08-01T03:51:36;99681.59;;;13.56;100.00
50380;BME280;37474;59.468;18.040;2023-08-01T03:54:06;99682.25;;;13.69;100.00
50380;BME280;37474;59.468;18.040;2023-08-01T03:56:40;99686.13;;;13.74;100.00
50380;BME280;37474;59.468;18.040;2023-08-01T03:59:13;99687.41;;;13.80;100.00
50380;BME280;37474;59.468;18.040;2023-08-01T04:01:42;99689.06;;;13.81;100.00
50380;BME280;37474;59.468;18.040;2023-08-01T04:04:10;99681.47;;;13.89;100.00
50380;BME280;37474;59.468;18.040;2023-08-01T04:06:39;99672.63;;;14.02;100.00
50380;BME280;37474;59.468;18.040;2023-08-01T04:09:09;99677.56;;;14.05;100.00
50380;BME280;37474;59.468;18.040;2023-08-01T04:11:38;99676.75;;;14.04;100.00
50380;BME280;37474;59.468;18.040;2023-08-01T04:14:06;99676.69;;;14.15;100.00
50380;BME280;37474;59.468;18.040;2023-08-01T04:16:35;99682.69;;;14.27;100.00
50380;BME280;37474;59.468;18.040;2023-08-01T04:19:04;99674.28;;;14.23;100.00
50380;BME280;37474;59.468;18.040;2023-08-01T04:21:32;99663.91;;;14.12;100.00
50380;BME280;37474;59.468;18.040;2023-08-01T04:24:01;99665.75;;;14.00;100.00
50380;BME280;37474;59.468;18.040;2023-08-01T04:26:31;99667.78;;;13.97;100.00
50380;BME280;37474;59.468;18.040;2023-08-01T04:28:59;99673.59;;;14.00;100.00
50380;BME280;37474;59.468;18.040;2023-08-01T04:31:28;99667.41;;;14.02;100.00
50380;BME280;37474;59.468;18.040;2023-08-01T04:33:56;99664.81;;;14.02;100.00
50380;BME280;37474;59.468;18.040;2023-08-01T04:36:25;99661.69;;;14.08;100.00
50380;BME280;37474;59.468;18.040;2023-08-01T04:38:54;99654.97;;;14.05;100.00
50380;BME280;37474;59.468;18.040;2023-08-01T04:41:22;99657.69;;;14.24;100.00
50380;BME280;37474;59.468;18.040;2023-08-01T04:43:52;99650.09;;;14.42;100.00
50380;BME280;37474;59.468;18.040;2023-08-01T04:46:20;99652.19;;;14.48;100.00
50380;BME280;37474;59.468;18.040;2023-08-01T04:48:49;99651.88;;;14.63;100.00
50380;BME280;37474;59.468;18.040;2023-08-01T04:51:18;99650.56;;;14.78;100.00
50380;BME280;37474;59.468;18.040;2023-08-01T04:53:46;99641.19;;;14.75;100.00
50380;BME280;37474;59.468;18.040;2023-08-01T04:56:15;99652.06;;;14.81;100.00
50380;BME280;37474;59.468;18.040;2023-08-01T04:58:43;99641.53;;;14.92;100.00
50380;BME280;37474;59.468;18.040;2023-08-01T05:01:14;99646.38;;;15.06;100.00
50380;BME280;37474;59.468;18.040;2023-08-01T05:03:42;99653.97;;;15.19;100.00
50380;BME280;37474;59.468;18.040;2023-08-01T05:06:11;99656.44;;;15.30;100.00
50380;BME280;37474;59.468;18.040;2023-08-01T05:08:40;99648.75;;;15.48;100.00
50380;BME280;37474;59.468;18.040;2023-08-01T05:11:08;99646.97;;;15.48;100.00
50380;BME280;37474;59.468;18.040;2023-08-01T05:13:36;99650.28;;;15.50;100.00
50380;BME280;37474;59.468;18.040;2023-08-01T05:16:05;99651.53;;;15.56;100.00
50380;BME280;37474;59.468;18.040;2023-08-01T05:18:35;99645.91;;;15.80;100.00
50380;BME280;37474;59.468;18.040;2023-08-01T05:21:04;99642.75;;;15.86;100.00
50380;BME280;37474;59.468;18.040;2023-08-01T05:23:32;99644.69;;;15.94;100.00
50380;BME280;37474;59.468;18.040;2023-08-01T05:26:00;99645.94;;;16.36;100.00
50380;BME280;37474;59.468;18.040;2023-08-01T05:28:29;99642.19;;;16.86;100.00
50380;BME280;37474;59.468;18.040;2023-08-01T05:30:58;99644.31;;;17.28;100.00
50380;BME280;37474;59.468;18.040;2023-08-01T05:33:27;99652.44;;;17.25;100.00
50380;BME280;37474;59.468;18.040;2023-08-01T05:35:56;99651.78;;;17.23;100.00
50380;BME280;37474;59.468;18.040;2023-08-01T05:38:25;99651.22;;;17.01;100.00
50380;BME280;37474;59.468;18.040;2023-08-01T05:40:53;99649.81;;;17.07;100.00
50380;BME280;37474;59.468;18.040;2023-08-01T05:43:22;99654.91;;;16.81;100.00
50380;BME280;37474;59.468;18.040;2023-08-01T05:45:50;99648.31;;;16.77;100.00
50380;BME280;37474;59.468;18.040;2023-08-01T05:48:19;99649.19;;;16.95;100.00
50380;BME280;37474;59.468;18.040;2023-08-01T05:50:48;99648.06;;;16.98;100.00
50380;BME280;37474;59.468;18.040;2023-08-01T05:53:17;99648.88;;;17.44;100.00
50380;BME280;37474;59.468;18.040;2023-08-01T05:55:46;99645.84;;;17.21;100.00
50380;BME280;37474;59.468;18.040;2023-08-01T05:58:15;99646.38;;;17.06;100.00
50380;BME280;37474;59.468;18.040;2023-08-01T06:00:43;99641.63;;;16.92;100.00
50380;BME280;37474;59.468;18.040;2023-08-01T06:03:12;99642.66;;;17.27;100.00
50380;BME280;37474;59.468;18.040;2023-08-01T06:05:40;99641.97;;;17.25;100.00
50380;BME280;37474;59.468;18.040;2023-08-01T06:08:09;99641.72;;;17.00;100.00
50380;BME280;37474;59.468;18.040;2023-08-01T06:10:40;99646.34;;;16.88;100.00
50380;BME280;37474;59.468;18.040;2023-08-01T06:13:08;99639.25;;;16.61;100.00
50380;BME280;37474;59.468;18.040;2023-08-01T06:15:36;99641.63;;;16.55;100.00
50380;BME280;37474;59.468;18.040;2023-08-01T06:18:05;99644.09;;;16.56;100.00
50380;BME280;37474;59.468;18.040;2023-08-01T06:20:34;99638.97;;;16.64;100.00
50380;BME280;37474;59.468;18.040;2023-08-01T06:23:02;99633.44;;;16.68;100.00
50380;BME280;37474;59.468;18.040;2023-08-01T06:25:31;99631.63;;;17.05;100.00
50380;BME280;37474;59.468;18.040;2023-08-01T06:28:01;99641.91;;;17.34;100.00
50380;BME280;37474;59.468;18.040;2023-08-01T06:30:29;99639.34;;;17.42;100.00
50380;BME280;37474;59.468;18.040;2023-08-01T06:32:58;99639.28;;;17.52;100.00
50380;BME280;37474;59.468;18.040;2023-08-01T06:35:26;99643.00;;;17.32;100.00
50380;BME280;37474;59.468;18.040;2023-08-01T06:37:55;99640.28;;;17.33;100.00
50380;BME280;37474;59.468;18.040;2023-08-01T06:40:23;99645.13;;;17.46;100.00
50380;BME280;37474;59.468;18.040;2023-08-01T06:42:52;99643.06;;;17.50;100.00
50380;BME280;37474;59.468;18.040;2023-08-01T06:45:22;99639.34;;;17.42;100.00
50380;BME280;37474;59.468;18.040;2023-08-01T06:47:50;99643.41;;;17.37;100.00
50380;BME280;37474;59.468;18.040;2023-08-01T06:50:19;99636.88;;;17.23;100.00
50380;BME280;37474;59.468;18.040;2023-08-01T06:52:48;99640.69;;;17.11;100.00
50380;BME280;37474;59.468;18.040;2023-08-01T06:55:16;99639.13;;;17.18;100.00
50380;BME280;37474;59.468;18.040;2023-08-01T06:57:45;99638.09;;;17.29;100.00
50380;BME280;37474;59.468;18.040;2023-08-01T07:00:14;99639.13;;;17.36;100.00
50380;BME280;37474;59.468;18.040;2023-08-01T07:02:44;99636.56;;;17.26;100.00
50380;BME280;37474;59.468;18.040;2023-08-01T07:05:14;99636.91;;;17.41;100.00
50380;BME280;37474;59.468;18.040;2023-08-01T07:07:42;99631.16;;;17.55;100.00
50380;BME280;37474;59.468;18.040;2023-08-01T07:10:11;99633.75;;;17.55;99.40
50380;BME280;37474;59.468;18.040;2023-08-01T07:12:39;99632.78;;;17.56;97.78
50380;BME280;37474;59.468;18.040;2023-08-01T07:15:09;99624.94;;;17.74;96.86
50380;BME280;37474;59.468;18.040;2023-08-01T07:17:38;99631.19;;;17.99;95.31
50380;BME280;37474;59.468;18.040;2023-08-01T07:20:08;99629.81;;;18.13;95.47
50380;BME280;37474;59.468;18.040;2023-08-01T07:22:37;99634.28;;;18.20;95.26
50380;BME280;37474;59.468;18.040;2023-08-01T07:25:06;99627.75;;;18.25;94.04
50380;BME280;37474;59.468;18.040;2023-08-01T07:27:38;99629.53;;;18.50;92.86
50380;BME280;37474;59.468;18.040;2023-08-01T07:30:08;99631.47;;;18.48;92.91
50380;BME280;37474;59.468;18.040;2023-08-01T07:32:37;99631.63;;;18.46;92.75
50380;BME280;37474;59.468;18.040;2023-08-01T07:35:08;99625.53;;;19.31;91.75
50380;BME280;37474;59.468;18.040;2023-08-01T07:37:37;99621.97;;;20.05;86.03
50380;BME280;37474;59.468;18.040;2023-08-01T07:40:06;99621.75;;;20.31;81.75
50380;BME280;37474;59.468;18.040;2023-08-01T07:42:35;99621.94;;;20.29;79.83
50380;BME280;37474;59.468;18.040;2023-08-01T07:45:05;99621.75;;;20.31;79.98
50380;BME280;37474;59.468;18.040;2023-08-01T07:47:33;99619.66;;;19.53;82.44
50380;BME280;37474;59.468;18.040;2023-08-01T07:50:02;99620.66;;;19.44;84.50
50380;BME280;37474;59.468;18.040;2023-08-01T07:52:32;99621.56;;;19.02;85.02
50380;BME280;37474;59.468;18.040;2023-08-01T07:55:01;99623.69;;;19.07;88.11
50380;BME280;37474;59.468;18.040;2023-08-01T07:57:29;99626.72;;;18.78;89.39
50380;BME280;37474;59.468;18.040;2023-08-01T07:59:58;99618.97;;;18.68;90.54
50380;BME280;37474;59.468;18.040;2023-08-01T08:02:26;99616.75;;;18.89;90.47
50380;BME280;37474;59.468;18.040;2023-08-01T08:04:55;99617.44;;;18.99;89.27
50380;BME280;37474;59.468;18.040;2023-08-01T08:07:23;99613.50;;;18.95;88.69
50380;BME280;37474;59.468;18.040;2023-08-01T08:09:53;99618.91;;;18.94;88.71
50380;BME280;37474;59.468;18.040;2023-08-01T08:12:22;99619.22;;;18.91;88.63
50380;BME280;37474;59.468;18.040;2023-08-01T08:14:50;99610.28;;;18.76;90.31
50380;BME280;37474;59.468;18.040;2023-08-01T08:17:19;99612.63;;;18.79;89.28
50380;BME280;37474;59.468;18.040;2023-08-01T08:19:47;99609.44;;;18.67;87.85
50380;BME280;37474;59.468;18.040;2023-08-01T08:22:16;99609.06;;;18.88;88.37
50380;BME280;37474;59.468;18.040;2023-08-01T08:24:44;99604.53;;;19.22;86.58
50380;BME280;37474;59.468;18.040;2023-08-01T08:27:14;99613.75;;;19.51;85.17
50380;BME280;37474;59.468;18.040;2023-08-01T08:29:43;99606.34;;;19.30;83.99
50380;BME280;37474;59.468;18.040;2023-08-01T08:32:11;99602.06;;;19.29;85.51
50380;BME280;37474;59.468;18.040;2023-08-01T08:34:40;99613.53;;;19.12;85.65
50380;BME280;37474;59.468;18.040;2023-08-01T08:37:08;99615.09;;;18.54;87.66
50380;BME280;37474;59.468;18.040;2023-08-01T08:39:37;99604.41;;;18.47;90.02
50380;BME280;37474;59.468;18.040;2023-08-01T08:42:06;99605.31;;;18.64;90.69
50380;BME280;37474;59.468;18.040;2023-08-01T08:44:42;99604.91;;;18.77;89.19
50380;BME280;37474;59.468;18.040;2023-08-01T08:47:11;99607.16;;;19.31;87.04
50380;BME280;37474;59.468;18.040;2023-08-01T08:49:40;99592.41;;;19.70;83.56
50380;BME280;37474;59.468;18.040;2023-08-01T08:52:10;99594.16;;;20.19;79.67
50380;BME280;37474;59.468;18.040;2023-08-01T08:54:40;99593.00;;;20.21;77.14
50380;BME280;37474;59.468;18.040;2023-08-01T08:57:08;99597.25;;;20.30;75.39
50380;BME280;37474;59.468;18.040;2023-08-01T08:59:39;99593.63;;;20.31;75.23
50380;BME280;37474;59.468;18.040;2023-08-01T09:02:08;99595.75;;;20.83;75.47
50380;BME280;37474;59.468;18.040;2023-08-01T09:04:36;99587.88;;;20.75;74.56
50380;BME280;37474;59.468;18.040;2023-08-01T09:07:08;99593.91;;;21.15;72.09
50380;BME280;37474;59.468;18.040;2023-08-01T09:09:38;99589.63;;;21.14;70.61
50380;BME280;37474;59.468;18.040;2023-08-01T09:12:08;99585.59;;;21.26;71.14
50380;BME280;37474;59.468;18.040;2023-08-01T09:14:39;99586.88;;;21.39;72.07
50380;BME280;37474;59.468;18.040;2023-08-01T09:17:09;99585.75;;;21.56;71.08
50380;BME280;37474;59.468;18.040;2023-08-01T09:19:37;99584.94;;;21.55;70.35
50380;BME280;37474;59.468;18.040;2023-08-01T09:22:10;99586.44;;;21.27;70.93
50380;BME280;37474;59.468;18.040;2023-08-01T09:24:49;99585.31;;;21.21;67.69
50380;BME280;37474;59.468;18.040;2023-08-01T09:27:20;99584.72;;;20.80;67.25
50380;BME280;37474;59.468;18.040;2023-08-01T09:29:52;99581.28;;;21.11;67.53
50380;BME280;37474;59.468;18.040;2023-08-01T09:32:20;99585.22;;;21.60;67.98
50380;BME280;37474;59.468;18.040;2023-08-01T09:34:58;99574.25;;;21.72;63.29
50380;BME280;37474;59.468;18.040;2023-08-01T09:37:26;99571.94;;;22.36;66.22
50380;BME280;37474;59.468;18.040;2023-08-01T09:39:55;99567.81;;;22.63;62.23
50380;BME280;37474;59.468;18.040;2023-08-01T09:42:24;99570.59;;;22.76;59.29
50380;BME280;37474;59.468;18.040;2023-08-01T09:44:54;99570.75;;;22.38;62.10
50380;BME280;37474;59.468;18.040;2023-08-01T09:47:23;99572.66;;;22.45;61.92
50380;BME280;37474;59.468;18.040;2023-08-01T09:49:51;99578.31;;;22.42;62.56
50380;BME280;37474;59.468;18.040;2023-08-01T09:52:27;99567.78;;;22.27;61.60
50380;BME280;37474;59.468;18.040;2023-08-01T09:54:55;99571.88;;;22.95;61.63
50380;BME280;37474;59.468;18.040;2023-08-01T09:57:28;99576.03;;;23.26;58.38
50380;BME280;37474;59.468;18.040;2023-08-01T09:59:59;99566.78;;;23.15;57.65
50380;BME280;37474;59.468;18.040;2023-08-01T10:02:30;99572.13;;;22.85;60.57
50380;BME280;37474;59.468;18.040;2023-08-01T10:05:00;99561.50;;;22.64;60.48
50380;BME280;37474;59.468;18.040;2023-08-01T10:07:30;99560.13;;;22.83;59.36
50380;BME280;37474;59.468;18.040;2023-08-01T10:10:00;99556.78;;;23.10;56.21
50380;BME280;37474;59.468;18.040;2023-08-01T10:12:31;99550.41;;;23.26;57.93
50380;BME280;37474;59.468;18.040;2023-08-01T10:15:03;99566.19;;;22.62;56.11
50380;BME280;37474;59.468;18.040;2023-08-01T10:17:34;99553.31;;;22.59;59.65
50380;BME280;37474;59.468;18.040;2023-08-01T10:20:05;99543.63;;;22.45;60.21
50380;BME280;37474;59.468;18.040;2023-08-01T10:22:34;99550.28;;;23.34;59.91
50380;BME280;37474;59.468;18.040;2023-08-01T10:25:04;99547.31;;;23.65;56.74
50380;BME280;37474;59.468;18.040;2023-08-01T10:27:33;99549.28;;;22.78;57.75
50380;BME280;37474;59.468;18.040;2023-08-01T10:30:05;99550.19;;;22.19;62.38
50380;BME280;37474;59.468;18.040;2023-08-01T10:32:36;99557.03;;;21.61;63.36
50380;BME280;37474;59.468;18.040;2023-08-01T10:35:06;99562.97;;;21.09;62.08
50380;BME280;37474;59.468;18.040;2023-08-01T10:37:41;99556.03;;;21.16;64.76
50380;BME280;37474;59.468;18.040;2023-08-01T10:40:10;99545.09;;;21.65;63.93
50380;BME280;37474;59.468;18.040;2023-08-01T10:42:43;99538.22;;;22.08;60.28
50380;BME280;37474;59.468;18.040;2023-08-01T10:45:24;99547.97;;;22.37;58.04
50380;BME280;37474;59.468;18.040;2023-08-01T10:48:06;99543.19;;;22.77;56.40
50380;BME280;37474;59.468;18.040;2023-08-01T10:50:35;99533.59;;;22.91;58.00
50380;BME280;37474;59.468;18.040;2023-08-01T10:53:05;99536.19;;;22.70;56.96
50380;BME280;37474;59.468;18.040;2023-08-01T10:55:40;99545.44;;;22.95;58.20
50380;BME280;37474;59.468;18.040;2023-08-01T10:58:09;99534.19;;;22.72;59.36
50380;BME280;37474;59.468;18.040;2023-08-01T11:00:39;99537.22;;;23.05;58.71
50380;BME280;37474;59.468;18.040;2023-08-01T11:03:07;99540.22;;;23.02;59.74
50380;BME280;37474;59.468;18.040;2023-08-01T11:05:37;99532.19;;;23.10;61.38
50380;BME280;37474;59.468;18.040;2023-08-01T11:08:05;99538.63;;;23.29;59.73
50380;BME280;37474;59.468;18.040;2023-08-01T11:10:34;99532.47;;;22.64;60.41
50380;BME280;37474;59.468;18.040;2023-08-01T11:13:03;99544.34;;;21.94;62.52
50380;BME280;37474;59.468;18.040;2023-08-01T11:15:31;99544.97;;;21.44;65.98
50380;BME280;37474;59.468;18.040;2023-08-01T11:18:02;99548.47;;;21.13;66.88
50380;BME280;37474;59.468;18.040;2023-08-01T11:20:31;99548.88;;;21.02;67.87
50380;BME280;37474;59.468;18.040;2023-08-01T11:23:00;99554.31;;;20.77;71.03
50380;BME280;37474;59.468;18.040;2023-08-01T11:25:33;99552.13;;;20.81;70.71
50380;BME280;37474;59.468;18.040;2023-08-01T11:28:03;99546.22;;;20.79;69.79
50380;BME280;37474;59.468;18.040;2023-08-01T11:30:33;99550.19;;;20.36;70.47
50380;BME280;37474;59.468;18.040;2023-08-01T11:33:13;99551.50;;;20.31;70.69
50380;BME280;37474;59.468;18.040;2023-08-01T11:35:42;99553.47;;;20.38;71.05
50380;BME280;37474;59.468;18.040;2023-08-01T11:38:11;99550.84;;;20.46;70.16
50380;BME280;37474;59.468;18.040;2023-08-01T11:40:40;99544.72;;;20.45;71.12
50380;BME280;37474;59.468;18.040;2023-08-01T11:43:09;99549.97;;;20.85;68.22
50380;BME280;37474;59.468;18.040;2023-08-01T11:45:48;99556.28;;;20.98;68.40
50380;BME280;37474;59.468;18.040;2023-08-01T11:48:18;99561.38;;;20.46;67.69
50380;BME280;37474;59.468;18.040;2023-08-01T11:50:47;99560.25;;;20.71;69.34
50380;BME280;37474;59.468;18.040;2023-08-01T11:53:19;99566.13;;;20.50;68.35
50380;BME280;37474;59.468;18.040;2023-08-01T11:55:48;99551.66;;;20.77;67.01
50380;BME280;37474;59.468;18.040;2023-08-01T11:58:28;99552.78;;;20.83;65.76
50380;BME280;37474;59.468;18.040;2023-08-01T12:01:04;99545.34;;;21.09;65.53
50380;BME280;37474;59.468;18.040;2023-08-01T12:03:42;99553.75;;;21.13;65.08
50380;BME280;37474;59.468;18.040;2023-08-01T12:06:11;99559.03;;;21.36;66.61
50380;BME280;37474;59.468;18.040;2023-08-01T12:08:41;99555.06;;;21.09;63.32
50380;BME280;37474;59.468;18.040;2023-08-01T12:11:23;99550.09;;;21.14;63.94
50380;BME280;37474;59.468;18.040;2023-08-01T12:14:03;99552.50;;;20.78;64.53
50380;BME280;37474;59.468;18.040;2023-08-01T12:16:33;99554.09;;;20.56;63.84
50380;BME280;37474;59.468;18.040;2023-08-01T12:19:03;99555.06;;;20.55;65.95
50380;BME280;37474;59.468;18.040;2023-08-01T12:21:33;99555.50;;;20.67;64.65
50380;BME280;37474;59.468;18.040;2023-08-01T12:24:02;99551.91;;;20.60;65.13
50380;BME280;37474;59.468;18.040;2023-08-01T12:26:30;99549.03;;;20.77;66.14
50380;BME280;37474;59.468;18.040;2023-08-01T12:28:58;99554.44;;;20.84;66.33
50380;BME280;37474;59.468;18.040;2023-08-01T12:31:26;99559.56;;;20.77;65.16
50380;BME280;37474;59.468;18.040;2023-08-01T12:33:56;99562.78;;;20.56;66.02
50380;BME280;37474;59.468;18.040;2023-08-01T12:36:26;99566.25;;;20.57;64.90
50380;BME280;37474;59.468;18.040;2023-08-01T12:38:55;99565.28;;;20.42;65.80
50380;BME280;37474;59.468;18.040;2023-08-01T12:41:23;99560.50;;;20.45;66.04
50380;BME280;37474;59.468;18.040;2023-08-01T12:43:52;99559.72;;;20.37;65.10
50380;BME280;37474;59.468;18.040;2023-08-01T12:46:20;99561.38;;;20.29;66.04
50380;BME280;37474;59.468;18.040;2023-08-01T12:48:49;99570.56;;;20.42;64.52
50380;BME280;37474;59.468;18.040;2023-08-01T12:51:17;99563.31;;;20.44;61.92
50380;BME280;37474;59.468;18.040;2023-08-01T12:53:47;99564.69;;;20.71;62.15
50380;BME280;37474;59.468;18.040;2023-08-01T12:56:15;99566.72;;;20.92;62.57